createdAt,value
2023-04-12T00:00:10.946Z,100754.81
2023-04-12T00:02:14.467Z,100755.53
2023-04-12T00:04:18.271Z,100758.09
2023-04-12T00:06:25.433Z,100754.59
2023-04-12T00:08:33.612Z,100756.28
2023-04-12T00:10:37.071Z,100751.00
2023-04-12T00:12:42.026Z,100749.28
2023-04-12T00:14:45.510Z,100750.97
2023-04-12T00:16:49.536Z,100744.09
2023-04-12T00:18:53.113Z,100738.91
2023-04-12T00:20:57.016Z,100733.59
2023-04-12T00:23:00.511Z,100725.84
2023-04-12T00:25:03.899Z,100723.25
2023-04-12T00:27:07.298Z,100724.94
2023-04-12T00:29:12.548Z,100722.34
2023-04-12T00:31:15.980Z,100719.75
2023-04-12T00:33:19.272Z,100711.09
2023-04-12T00:35:22.636Z,100704.22
2023-04-12T00:37:25.988Z,100715.41
2023-04-12T00:39:29.393Z,100711.09
2023-04-12T00:41:34.508Z,100709.34
2023-04-12T00:43:38.573Z,100699.03
2023-04-12T00:45:44.525Z,100704.22
2023-04-12T00:47:48.986Z,100700.72
2023-04-12T00:49:52.402Z,100700.72
2023-04-12T00:51:55.695Z,100689.50
2023-04-12T00:54:01.164Z,100699.03
2023-04-12T00:56:05.678Z,100688.66
2023-04-12T00:58:09.672Z,100680.03
2023-04-12T01:00:14.589Z,100674.94
2023-04-12T01:02:30.997Z,100674.06
2023-04-12T01:04:38.139Z,100673.22
2023-04-12T01:06:56.059Z,100663.88
2023-04-12T01:09:08.408Z,100663.88
2023-04-12T01:11:19.966Z,100663.03
2023-04-12T01:13:30.797Z,100659.50
2023-04-12T01:15:59.911Z,100655.25
2023-04-12T01:18:09.866Z,100642.34
2023-04-12T01:20:20.049Z,100638.13
2023-04-12T01:22:38.485Z,100639.94
2023-04-12T01:24:52.989Z,100646.91
2023-04-12T01:27:00.831Z,100634.88
2023-04-12T01:29:10.906Z,100638.38
2023-04-12T01:31:15.583Z,100634.88
2023-04-12T01:33:20.082Z,100632.22
2023-04-12T01:35:29.255Z,100625.28
2023-04-12T01:37:33.090Z,100621.81
2023-04-12T01:39:40.269Z,100630.34
2023-04-12T01:41:45.632Z,100623.38
2023-04-12T01:43:49.590Z,100619.88
2023-04-12T01:45:54.350Z,100621.41
2023-04-12T01:47:58.274Z,100608.53
2023-04-12T01:50:13.816Z,100609.38
2023-04-12T01:52:22.429Z,100607.69
2023-04-12T01:54:29.462Z,100602.59
2023-04-12T01:56:40.401Z,100597.47
2023-04-12T01:58:45.979Z,100596.63
2023-04-12T02:00:52.836Z,100594.88
2023-04-12T02:03:00.030Z,100592.34
2023-04-12T02:05:05.814Z,100591.50
2023-04-12T02:07:09.570Z,100583.72
2023-04-12T02:09:13.150Z,100583.72
2023-04-12T02:11:16.750Z,100581.19
2023-04-12T02:13:20.920Z,100575.19
2023-04-12T02:15:24.644Z,100578.66
2023-04-12T02:17:29.934Z,100570.91
2023-04-12T02:19:35.360Z,100563.19
2023-04-12T02:21:43.112Z,100559.75
2023-04-12T02:23:47.231Z,100559.75
2023-04-12T02:25:50.551Z,100557.22
2023-04-12T02:27:55.718Z,100558.97
2023-04-12T02:30:00.655Z,100555.47
2023-04-12T02:32:04.260Z,100552.88
2023-04-12T02:34:08.462Z,100544.22
2023-04-12T02:36:16.431Z,100542.41
2023-04-12T02:38:22.760Z,100532.03
2023-04-12T02:40:27.414Z,100525.06
2023-04-12T02:42:32.098Z,100519.75
2023-04-12T02:44:36.972Z,100514.41
2023-04-12T02:46:49.738Z,100498.88
2023-04-12T02:48:54.064Z,100503.94
2023-04-12T02:51:02.056Z,100496.94
2023-04-12T02:53:09.492Z,100483.16
2023-04-12T02:55:13.422Z,100483.09
2023-04-12T02:57:17.289Z,100479.59
2023-04-12T02:59:23.028Z,100472.66
2023-04-12T03:01:46.831Z,100464.94
2023-04-12T03:04:06.547Z,100460.59
2023-04-12T03:06:19.564Z,100457.19
2023-04-12T03:08:24.519Z,100457.19
2023-04-12T03:10:31.409Z,100449.41
2023-04-12T03:12:39.234Z,100438.13
2023-04-12T03:14:56.237Z,100431.19
2023-04-12T03:17:02.493Z,100430.22
2023-04-12T03:19:06.613Z,100419.81
2023-04-12T03:21:10.281Z,100423.25
2023-04-12T03:23:17.188Z,100417.94
2023-04-12T03:25:27.226Z,100410.03
2023-04-12T03:27:37.530Z,100406.53
2023-04-12T03:29:40.993Z,100402.97
2023-04-12T03:31:44.321Z,100401.22
2023-04-12T03:33:47.733Z,100403.75
2023-04-12T03:36:00.300Z,100393.31
2023-04-12T03:38:06.659Z,100400.06
2023-04-12T03:40:11.120Z,100392.22
2023-04-12T03:42:31.814Z,100391.31
2023-04-12T03:44:38.169Z,100386.91
2023-04-12T03:46:47.188Z,100381.72
2023-04-12T03:48:52.016Z,100386.91
2023-04-12T03:50:59.805Z,100378.22
2023-04-12T03:53:06.201Z,100367.88
2023-04-12T03:55:12.008Z,100367.03
2023-04-12T03:57:16.320Z,100353.22
2023-04-12T03:59:27.280Z,100349.78
2023-04-12T04:01:31.171Z,100352.38
2023-04-12T04:03:35.992Z,100341.25
2023-04-12T04:05:52.981Z,100336.06
2023-04-12T04:08:00.692Z,100323.16
2023-04-12T04:10:06.661Z,100323.16
2023-04-12T04:12:13.508Z,100326.66
2023-04-12T04:14:21.387Z,100314.63
2023-04-12T04:16:26.192Z,100305.94
2023-04-12T04:18:30.688Z,100302.50
2023-04-12T04:20:34.561Z,100296.47
2023-04-12T04:22:38.372Z,100292.25
2023-04-12T04:24:41.998Z,100292.25
2023-04-12T04:26:45.695Z,100291.41
2023-04-12T04:29:09.302Z,100283.53
2023-04-12T04:31:18.000Z,100284.34
2023-04-12T04:33:27.849Z,100281.69
2023-04-12T04:35:40.659Z,100285.06
2023-04-12T04:38:04.671Z,100278.97
2023-04-12T04:40:11.445Z,100271.19
2023-04-12T04:42:15.437Z,100271.06
2023-04-12T04:44:36.323Z,100275.25
2023-04-12T04:46:45.714Z,100263.16
2023-04-12T04:48:51.878Z,100262.09
2023-04-12T04:50:55.193Z,100250.81
2023-04-12T04:52:59.079Z,100247.25
2023-04-12T04:55:08.581Z,100241.06
2023-04-12T04:57:17.693Z,100241.06
2023-04-12T04:59:22.009Z,100239.31
2023-04-12T05:01:28.771Z,100237.56
2023-04-12T05:03:37.491Z,100244.44
2023-04-12T05:05:42.932Z,100244.44
2023-04-12T05:07:47.519Z,100243.41
2023-04-12T05:09:54.829Z,100239.91
2023-04-12T05:11:58.199Z,100242.44
2023-04-12T05:14:02.664Z,100239.78
2023-04-12T05:16:08.273Z,100239.69
2023-04-12T05:18:11.641Z,100238.78
2023-04-12T05:20:15.085Z,100230.94
2023-04-12T05:22:22.036Z,100235.13
2023-04-12T05:24:25.348Z,100229.81
2023-04-12T05:26:28.934Z,100230.56
2023-04-12T05:28:34.328Z,100219.13
2023-04-12T05:30:40.190Z,100211.28
2023-04-12T05:32:46.074Z,100205.84
2023-04-12T05:34:53.430Z,100203.09
2023-04-12T05:36:59.602Z,100209.81
2023-04-12T05:39:08.754Z,100202.72
2023-04-12T05:41:13.354Z,100199.91
2023-04-12T05:43:17.799Z,100204.03
2023-04-12T05:45:22.484Z,100194.34
2023-04-12T05:47:25.833Z,100195.00
2023-04-12T05:49:32.312Z,100203.41
2023-04-12T05:51:41.521Z,100197.16
2023-04-12T05:53:53.565Z,100186.53
2023-04-12T05:55:58.496Z,100187.22
2023-04-12T05:58:02.372Z,100178.38
2023-04-12T06:00:13.254Z,100176.53
2023-04-12T06:02:20.655Z,100172.84
2023-04-12T06:04:29.868Z,100164.88
2023-04-12T06:06:38.538Z,100160.28
2023-04-12T06:08:42.329Z,100171.28
2023-04-12T06:10:45.639Z,100166.69
2023-04-12T06:12:51.110Z,100159.50
2023-04-12T06:14:57.014Z,100161.00
2023-04-12T06:17:00.620Z,100155.56
2023-04-12T06:19:05.236Z,100148.28
2023-04-12T06:21:09.558Z,100147.97
2023-04-12T06:23:12.990Z,100139.06
2023-04-12T06:25:17.255Z,100135.38
2023-04-12T06:27:22.807Z,100140.22
2023-04-12T06:29:27.933Z,100125.16
2023-04-12T06:31:31.655Z,100136.03
2023-04-12T06:33:36.762Z,100133.00
2023-04-12T06:35:43.624Z,100129.06
2023-04-12T06:37:48.537Z,100125.19
2023-04-12T06:39:52.641Z,100122.06
2023-04-12T06:41:57.693Z,100117.25
2023-04-12T06:44:01.248Z,100107.28
2023-04-12T06:46:06.547Z,100105.06
2023-04-12T06:48:09.896Z,100102.69
2023-04-12T06:50:13.321Z,100103.91
2023-04-12T06:52:16.674Z,100093.78
2023-04-12T06:54:19.957Z,100099.19
2023-04-12T06:56:23.339Z,100101.97
2023-04-12T06:58:26.744Z,100096.03
2023-04-12T07:00:30.193Z,100096.22
2023-04-12T07:02:35.017Z,100094.78
2023-04-12T07:04:38.410Z,100099.34
2023-04-12T07:06:42.667Z,100095.19
2023-04-12T07:08:45.950Z,100082.44
2023-04-12T07:10:54.800Z,100069.66
2023-04-12T07:13:03.060Z,100079.50
2023-04-12T07:15:07.219Z,100077.22
2023-04-12T07:17:10.511Z,100074.97
2023-04-12T07:19:16.450Z,100076.03
2023-04-12T07:21:19.766Z,100079.06
2023-04-12T07:23:23.075Z,100075.22
2023-04-12T07:25:26.441Z,100076.72
2023-04-12T07:27:29.749Z,100068.59
2023-04-12T07:29:33.272Z,100067.31
2023-04-12T07:31:36.672Z,100065.25
2023-04-12T07:33:42.770Z,100068.38
2023-04-12T07:35:47.819Z,100062.75
2023-04-12T07:37:51.344Z,100054.50
2023-04-12T07:39:54.671Z,100053.25
2023-04-12T07:41:57.936Z,100056.28
2023-04-12T07:44:01.328Z,100055.03
2023-04-12T07:46:08.571Z,100054.72
2023-04-12T07:48:12.208Z,100051.91
2023-04-12T07:50:15.574Z,100038.84
2023-04-12T07:52:20.288Z,100040.00
2023-04-12T07:54:23.790Z,100032.16
2023-04-12T07:56:27.263Z,100032.91
2023-04-12T07:58:30.732Z,100037.91
2023-04-12T08:00:34.503Z,100020.38
2023-04-12T08:02:38.115Z,100018.28
2023-04-12T08:04:44.375Z,100019.75
2023-04-12T08:06:47.830Z,100016.91
2023-04-12T08:08:52.535Z,100014.00
2023-04-12T08:10:55.836Z,100017.13
2023-04-12T08:13:00.205Z,99999.41
2023-04-12T08:15:03.526Z,99995.66
2023-04-12T08:17:06.783Z,99993.66
2023-04-12T08:19:10.190Z,99982.28
2023-04-12T08:21:13.539Z,99982.16
2023-04-12T08:23:16.889Z,99982.16
2023-04-12T08:25:22.385Z,99977.66
2023-04-12T08:27:25.953Z,99976.00
2023-04-12T08:29:29.245Z,99972.44
2023-04-12T08:31:33.449Z,99962.94
2023-04-12T08:33:36.791Z,99956.97
2023-04-12T08:35:41.206Z,99944.75
2023-04-12T08:37:44.769Z,99944.75
2023-04-12T08:39:48.026Z,99944.88
2023-04-12T08:41:55.247Z,99937.03
2023-04-12T08:44:00.702Z,99937.75
2023-04-12T08:46:04.316Z,99936.69
2023-04-12T08:48:07.673Z,99931.38
2023-04-12T08:50:14.108Z,99919.03
2023-04-12T08:52:17.611Z,99912.63
2023-04-12T08:54:20.934Z,99903.59
2023-04-12T08:56:25.114Z,99896.25
2023-04-12T08:58:31.462Z,99908.88
2023-04-12T09:00:35.792Z,99895.47
2023-04-12T09:02:39.782Z,99896.81
2023-04-12T09:04:49.977Z,99893.00
2023-04-12T09:06:53.506Z,99889.22
2023-04-12T09:08:58.089Z,99890.66
2023-04-12T09:11:01.379Z,99879.13
2023-04-12T09:13:05.002Z,99873.69
2023-04-12T09:15:13.112Z,99880.34
2023-04-12T09:17:24.327Z,99866.94
2023-04-12T09:19:32.884Z,99862.75
2023-04-12T09:21:37.835Z,99863.00
2023-04-12T09:23:41.188Z,99858.16
2023-04-12T09:25:48.163Z,99853.53
2023-04-12T09:27:54.182Z,99846.13
2023-04-12T09:30:10.550Z,99836.25
2023-04-12T09:32:13.968Z,99823.66
2023-04-12T09:34:17.317Z,99811.75
2023-04-12T09:36:20.798Z,99811.97
2023-04-12T09:38:24.097Z,99803.75
2023-04-12T09:40:27.423Z,99809.81
2023-04-12T09:42:33.943Z,99810.78
2023-04-12T09:44:38.804Z,99807.56
2023-04-12T09:46:53.188Z,99807.00
2023-04-12T09:49:00.193Z,99802.00
2023-04-12T09:51:04.286Z,99793.44
2023-04-12T09:53:18.576Z,99791.78
2023-04-12T09:55:24.003Z,99792.59
2023-04-12T09:57:27.633Z,99800.34
2023-04-12T09:59:34.842Z,99790.69
2023-04-12T10:01:40.715Z,99795.81
2023-04-12T10:03:46.055Z,99793.78
2023-04-12T10:05:49.592Z,99787.47
2023-04-12T10:07:55.003Z,99784.47
2023-04-12T10:10:00.767Z,99777.09
2023-04-12T10:12:05.203Z,99774.13
2023-04-12T10:14:09.853Z,99770.28
2023-04-12T10:16:15.023Z,99770.88
2023-04-12T10:18:20.024Z,99769.53
2023-04-12T10:20:28.957Z,99763.13
2023-04-12T10:22:33.194Z,99767.88
2023-04-12T10:24:37.024Z,99768.09
2023-04-12T10:26:43.756Z,99764.00
2023-04-12T10:28:48.009Z,99763.50
2023-04-12T10:30:53.293Z,99756.09
2023-04-12T10:33:17.913Z,99762.75
2023-04-12T10:35:21.581Z,99764.88
2023-04-12T10:37:59.340Z,99764.34
2023-04-12T10:40:04.710Z,99747.41
2023-04-12T10:42:25.101Z,99746.56
2023-04-12T10:44:28.680Z,99756.22
2023-04-12T10:46:54.146Z,99758.38
2023-04-12T10:48:58.221Z,99757.00
2023-04-12T10:51:17.993Z,99760.84
2023-04-12T10:53:26.261Z,99756.94
2023-04-12T10:55:32.868Z,99763.50
2023-04-12T10:57:44.559Z,99752.56
2023-04-12T10:59:57.045Z,99756.06
2023-04-12T11:02:12.053Z,99758.00
2023-04-12T11:04:20.616Z,99751.25
2023-04-12T11:06:48.723Z,99750.56
2023-04-12T11:09:20.776Z,99757.16
2023-04-12T11:11:24.151Z,99754.66
2023-04-12T11:13:27.709Z,99760.88
2023-04-12T11:15:34.277Z,99763.50
2023-04-12T11:17:38.005Z,99749.50
2023-04-12T11:19:42.892Z,99754.47
2023-04-12T11:21:46.357Z,99756.72
2023-04-12T11:23:50.375Z,99758.84
2023-04-12T11:25:55.547Z,99760.16
2023-04-12T11:27:58.927Z,99759.69
2023-04-12T11:30:04.825Z,99754.91
2023-04-12T11:32:13.869Z,99766.66
2023-04-12T11:34:18.163Z,99762.75
2023-04-12T11:36:21.608Z,99764.03
2023-04-12T11:38:25.148Z,99772.22
2023-04-12T11:40:28.497Z,99754.16
2023-04-12T11:42:34.566Z,99765.56
2023-04-12T11:44:54.512Z,99751.78
2023-04-12T11:46:59.000Z,99757.22
2023-04-12T11:49:02.673Z,99761.84
2023-04-12T11:51:20.308Z,99752.72
2023-04-12T11:53:28.745Z,99759.81
2023-04-12T11:55:32.132Z,99749.59
2023-04-12T11:57:37.065Z,99755.03
2023-04-12T11:59:41.005Z,99744.94
2023-04-12T12:01:44.546Z,99745.06
2023-04-12T12:03:49.391Z,99746.94
2023-04-12T12:05:53.514Z,99739.81
2023-04-12T12:07:58.410Z,99739.59
2023-04-12T12:10:03.038Z,99739.38
2023-04-12T12:12:06.752Z,99730.50
2023-04-12T12:14:11.542Z,99728.47
2023-04-12T12:16:15.027Z,99731.59
2023-04-12T12:18:18.555Z,99725.78
2023-04-12T12:20:22.689Z,99726.03
2023-04-12T12:22:26.131Z,99733.28
2023-04-12T12:24:29.525Z,99717.97
2023-04-12T12:26:32.921Z,99718.56
2023-04-12T12:28:38.739Z,99718.34
2023-04-12T12:30:43.616Z,99721.66
2023-04-12T12:32:47.410Z,99718.09
2023-04-12T12:34:55.711Z,99711.22
2023-04-12T12:36:59.109Z,99707.88
2023-04-12T12:39:08.310Z,99698.25
2023-04-12T12:41:19.148Z,99706.22
2023-04-12T12:43:22.527Z,99698.50
2023-04-12T12:45:27.272Z,99694.31
2023-04-12T12:47:32.574Z,99687.44
2023-04-12T12:49:35.981Z,99684.94
2023-04-12T12:51:39.309Z,99678.06
2023-04-12T12:53:42.841Z,99679.16
2023-04-12T12:55:46.136Z,99669.75
2023-04-12T12:58:05.990Z,99666.44
2023-04-12T13:00:12.190Z,99670.59
2023-04-12T13:02:18.344Z,99668.44
2023-04-12T13:04:23.279Z,99661.06
2023-04-12T13:06:28.352Z,99658.09
2023-04-12T13:08:35.129Z,99657.63
2023-04-12T13:10:38.450Z,99659.41
2023-04-12T13:12:41.830Z,99657.03
2023-04-12T13:14:45.130Z,99650.13
2023-04-12T13:16:49.234Z,99649.50
2023-04-12T13:18:52.809Z,99646.28
2023-04-12T13:20:57.858Z,99631.75
2023-04-12T13:23:01.472Z,99638.16
2023-04-12T13:25:04.900Z,99629.69
2023-04-12T13:27:08.432Z,99640.47
2023-04-12T13:29:11.805Z,99625.63
2023-04-12T13:31:15.187Z,99633.59
2023-04-12T13:33:21.631Z,99627.91
2023-04-12T13:35:25.702Z,99625.78
2023-04-12T13:37:30.400Z,99627.94
2023-04-12T13:39:34.579Z,99617.84
2023-04-12T13:41:37.955Z,99620.72
2023-04-12T13:43:42.437Z,99620.38
2023-04-12T13:45:46.033Z,99613.72
2023-04-12T13:47:49.414Z,99608.03
2023-04-12T13:49:52.816Z,99611.72
2023-04-12T13:51:57.051Z,99614.22
2023-04-12T13:54:01.944Z,99601.03
2023-04-12T13:56:05.643Z,99610.66
2023-04-12T13:58:09.071Z,99602.81
2023-04-12T14:00:13.334Z,99605.66
2023-04-12T14:02:16.731Z,99603.88
2023-04-12T14:04:20.091Z,99596.03
2023-04-12T14:06:23.588Z,99593.31
2023-04-12T14:08:27.511Z,99600.91
2023-04-12T14:10:32.208Z,99596.34
2023-04-12T14:12:35.946Z,99596.94
2023-04-12T14:14:39.339Z,99598.50
2023-04-12T14:16:42.701Z,99593.97
2023-04-12T14:18:46.127Z,99584.22
2023-04-12T14:20:52.676Z,99594.69
2023-04-12T14:22:56.961Z,99588.50
2023-04-12T14:25:00.895Z,99604.19
2023-04-12T14:27:05.694Z,99595.50
2023-04-12T14:29:09.773Z,99586.84
2023-04-12T14:31:14.886Z,99583.38
2023-04-12T14:33:19.633Z,99592.06
2023-04-12T14:35:23.060Z,99590.41
2023-04-12T14:37:26.662Z,99581.84
2023-04-12T14:39:30.982Z,99582.78
2023-04-12T14:41:34.406Z,99576.63
2023-04-12T14:43:39.301Z,99573.28
2023-04-12T14:45:42.693Z,99576.84
2023-04-12T14:47:46.055Z,99580.44
2023-04-12T14:49:49.464Z,99569.97
2023-04-12T14:51:52.814Z,99564.72
2023-04-12T14:53:56.536Z,99559.50
2023-04-12T14:56:02.393Z,99551.66
2023-04-12T14:58:06.537Z,99551.78
2023-04-12T15:00:15.641Z,99563.06
2023-04-12T15:02:21.054Z,99557.59
2023-04-12T15:04:26.760Z,99558.19
2023-04-12T15:06:33.761Z,99553.78
2023-04-12T15:08:41.738Z,99552.13
2023-04-12T15:10:45.286Z,99554.03
2023-04-12T15:12:48.618Z,99553.44
2023-04-12T15:14:53.947Z,99553.84
2023-04-12T15:16:58.717Z,99548.84
2023-04-12T15:19:07.942Z,99556.94
2023-04-12T15:21:14.744Z,99551.00
2023-04-12T15:23:18.021Z,99547.56
2023-04-12T15:25:22.001Z,99544.13
2023-04-12T15:27:25.394Z,99544.81
2023-04-12T15:29:28.733Z,99539.84
2023-04-12T15:31:32.884Z,99543.41
2023-04-12T15:33:37.979Z,99540.09
2023-04-12T15:35:41.423Z,99532.50
2023-04-12T15:37:45.310Z,99537.84
2023-04-12T15:39:48.764Z,99528.34
2023-04-12T15:41:52.109Z,99535.34
2023-04-12T15:43:55.595Z,99534.63
2023-04-12T15:45:59.183Z,99529.41
2023-04-12T15:48:02.685Z,99527.03
2023-04-12T15:50:09.614Z,99531.59
2023-04-12T15:52:13.039Z,99532.53
2023-04-12T15:54:16.636Z,99527.56
2023-04-12T15:56:24.224Z,99525.88
2023-04-12T15:58:28.443Z,99527.69
2023-04-12T16:00:31.809Z,99526.72
2023-04-12T16:02:35.195Z,99528.25
2023-04-12T16:04:39.281Z,99520.19
2023-04-12T16:06:44.775Z,99518.25
2023-04-12T16:08:49.247Z,99519.91
2023-04-12T16:10:52.861Z,99526.78
2023-04-12T16:12:57.343Z,99525.97
2023-04-12T16:15:00.784Z,99524.31
2023-04-12T16:17:04.106Z,99521.81
2023-04-12T16:19:08.440Z,99520.84
2023-04-12T16:21:16.322Z,99513.97
2023-04-12T16:23:21.938Z,99514.94
2023-04-12T16:25:27.397Z,99514.94
2023-04-12T16:27:30.754Z,99509.00
2023-04-12T16:29:34.050Z,99515.44
2023-04-12T16:31:38.940Z,99518.28
2023-04-12T16:33:44.670Z,99513.19
2023-04-12T16:35:48.691Z,99511.75
2023-04-12T16:37:52.395Z,99517.94
2023-04-12T16:39:58.199Z,99513.78
2023-04-12T16:42:02.943Z,99514.75
2023-04-12T16:44:06.377Z,99513.06
2023-04-12T16:46:10.649Z,99508.81
2023-04-12T16:48:14.501Z,99507.25
2023-04-12T16:50:18.049Z,99498.72
2023-04-12T16:52:21.683Z,99500.66
2023-04-12T16:54:25.129Z,99499.81
2023-04-12T16:56:30.693Z,99500.66
2023-04-12T16:58:34.136Z,99495.44
2023-04-12T17:00:38.957Z,99491.03
2023-04-12T17:02:42.765Z,99497.09
2023-04-12T17:04:46.262Z,99493.75
2023-04-12T17:06:49.621Z,99496.50
2023-04-12T17:08:52.955Z,99500.06
2023-04-12T17:10:56.388Z,99494.84
2023-04-12T17:13:02.083Z,99487.13
2023-04-12T17:15:06.322Z,99486.28
2023-04-12T17:17:09.638Z,99482.97
2023-04-12T17:19:13.035Z,99487.25
2023-04-12T17:21:17.169Z,99480.34
2023-04-12T17:23:20.647Z,99470.03
2023-04-12T17:25:26.253Z,99470.03
2023-04-12T17:27:34.508Z,99470.97
2023-04-12T17:29:39.185Z,99457.91
2023-04-12T17:31:42.845Z,99471.91
2023-04-12T17:33:46.131Z,99458.97
2023-04-12T17:35:49.717Z,99461.72
2023-04-12T17:37:53.280Z,99461.84
2023-04-12T17:39:57.156Z,99461.97
2023-04-12T17:42:01.307Z,99450.91
2023-04-12T17:44:04.647Z,99463.25
2023-04-12T17:46:09.312Z,99459.81
2023-04-12T17:48:14.868Z,99455.59
2023-04-12T17:50:18.269Z,99459.25
2023-04-12T17:52:21.539Z,99463.66
2023-04-12T17:54:24.953Z,99461.88
2023-04-12T17:56:30.651Z,99463.53
2023-04-12T17:58:34.442Z,99455.81
2023-04-12T18:00:37.776Z,99459.25
2023-04-12T18:02:44.299Z,99467.09
2023-04-12T18:04:48.496Z,99463.53
2023-04-12T18:06:52.194Z,99467.09
2023-04-12T18:08:55.681Z,99468.88
2023-04-12T18:11:00.656Z,99462.81
2023-04-12T18:13:04.714Z,99467.09
2023-04-12T18:15:09.470Z,99463.53
2023-04-12T18:17:15.773Z,99461.88
2023-04-12T18:19:20.547Z,99460.22
2023-04-12T18:21:23.829Z,99456.66
2023-04-12T18:23:27.118Z,99458.31
2023-04-12T18:25:30.957Z,99453.09
2023-04-12T18:27:34.303Z,99459.97
2023-04-12T18:29:37.678Z,99465.19
2023-04-12T18:31:41.322Z,99471.09
2023-04-12T18:33:44.644Z,99468.50
2023-04-12T18:35:51.247Z,99473.72
2023-04-12T18:37:54.739Z,99478.94
2023-04-12T18:39:58.535Z,99489.25
2023-04-12T18:42:01.895Z,99490.22
2023-04-12T18:44:05.396Z,99510.28
2023-04-12T18:46:09.041Z,99512.22
2023-04-12T18:48:12.313Z,99516.59
2023-04-12T18:50:19.364Z,99514.09
2023-04-12T18:52:24.157Z,99509.13
2023-04-12T18:54:28.998Z,99510.19
2023-04-12T18:56:32.397Z,99512.91
2023-04-12T19:00:42.398Z,99517.53
2023-04-12T19:02:45.736Z,99517.78
2023-04-12T19:04:49.090Z,99514.34
2023-04-12T19:06:53.281Z,99518.84
2023-04-12T19:08:57.990Z,99531.06
2023-04-12T19:11:01.345Z,99528.47
2023-04-12T19:13:04.746Z,99544.94
2023-04-12T19:15:09.346Z,99546.84
2023-04-12T19:17:12.659Z,99551.25
2023-04-12T19:19:16.763Z,99547.91
2023-04-12T19:21:20.072Z,99556.69
2023-04-12T19:23:24.379Z,99552.53
2023-04-12T19:25:31.495Z,99553.47
2023-04-12T19:27:34.861Z,99550.97
2023-04-12T19:29:38.116Z,99556.31
2023-04-12T19:31:43.228Z,99579.09
2023-04-12T19:33:46.678Z,99579.31
2023-04-12T19:35:50.153Z,99580.00
2023-04-12T19:37:54.664Z,99580.94
2023-04-12T19:39:58.135Z,99585.41
2023-04-12T19:42:03.447Z,99597.59
2023-04-12T19:44:06.759Z,99590.78
2023-04-12T19:46:10.236Z,99591.69
2023-04-12T19:48:14.381Z,99590.69
2023-04-12T19:50:19.574Z,99584.44
2023-04-12T19:52:23.339Z,99586.78
2023-04-12T19:54:27.304Z,99594.94
2023-04-12T19:56:31.659Z,99581.41
2023-04-12T19:58:36.462Z,99580.06
2023-04-12T20:00:41.244Z,99587.41
2023-04-12T20:02:44.698Z,99576.47
2023-04-12T20:04:48.020Z,99576.66
2023-04-12T20:06:53.112Z,99573.56
2023-04-12T20:08:56.719Z,99566.06
2023-04-12T20:11:00.592Z,99565.44
2023-04-12T20:13:04.863Z,99568.41
2023-04-12T20:15:11.764Z,99571.31
2023-04-12T20:17:15.153Z,99562.78
2023-04-12T20:19:18.691Z,99557.78
2023-04-12T20:21:21.973Z,99566.72
2023-04-12T20:23:26.068Z,99552.25
2023-04-12T20:25:29.354Z,99547.25
2023-04-12T20:27:33.749Z,99549.38
2023-04-12T20:29:38.054Z,99545.44
2023-04-12T20:31:43.358Z,99546.69
2023-04-12T20:33:46.785Z,99552.19
2023-04-12T20:35:51.425Z,99555.84
2023-04-12T20:37:55.076Z,99543.03
2023-04-12T20:39:59.364Z,99551.78
2023-04-12T20:42:02.764Z,99550.09
2023-04-12T20:44:06.562Z,99552.00
2023-04-12T20:46:15.290Z,99557.41
2023-04-12T20:48:20.065Z,99567.81
2023-04-12T20:50:24.636Z,99572.19
2023-04-12T20:52:27.973Z,99564.28
2023-04-12T20:54:33.107Z,99562.41
2023-04-12T20:56:36.366Z,99553.63
2023-04-12T20:58:43.851Z,99560.50
2023-04-12T21:00:48.105Z,99545.84
2023-04-12T21:02:51.653Z,99539.94
2023-04-12T21:04:58.848Z,99544.59
2023-04-12T21:07:03.114Z,99549.09
2023-04-12T21:09:06.966Z,99547.63
2023-04-12T21:11:10.612Z,99553.03
2023-04-12T21:13:14.252Z,99556.78
2023-04-12T21:15:21.727Z,99563.22
2023-04-12T21:17:25.316Z,99567.19
2023-04-12T21:19:31.507Z,99572.75
2023-04-12T21:21:36.659Z,99574.81
2023-04-12T21:23:39.976Z,99577.91
2023-04-12T21:25:43.872Z,99580.84
2023-04-12T21:27:47.754Z,99584.56
2023-04-12T21:29:51.052Z,99581.44
2023-04-12T21:31:54.502Z,99585.16
2023-04-12T21:33:59.840Z,99584.50
2023-04-12T21:36:03.140Z,99587.41
2023-04-12T21:38:07.831Z,99594.59
2023-04-12T21:40:12.739Z,99612.97
2023-04-12T21:42:16.342Z,99613.16
2023-04-12T21:44:20.000Z,99610.03
2023-04-12T21:46:27.400Z,99605.00
2023-04-12T21:48:31.163Z,99607.06
2023-04-12T21:50:34.579Z,99608.31
2023-04-12T21:52:38.705Z,99622.31
2023-04-12T21:54:43.750Z,99630.31
2023-04-12T21:56:47.319Z,99635.69
2023-04-12T21:58:51.420Z,99642.00
2023-04-12T22:00:55.434Z,99641.25
2023-04-12T22:02:59.618Z,99644.03
2023-04-12T22:05:03.360Z,99645.97
2023-04-12T22:07:09.971Z,99638.28
2023-04-12T22:09:13.299Z,99632.47
2023-04-12T22:11:18.371Z,99632.56
2023-04-12T22:13:24.812Z,99633.50
2023-04-12T22:15:28.514Z,99631.81
2023-04-12T22:17:32.745Z,99632.75
2023-04-12T22:19:36.472Z,99636.28
2023-04-12T22:21:41.541Z,99633.69
2023-04-12T22:23:45.714Z,99632.84
2023-04-12T22:25:49.572Z,99618.28
2023-04-12T22:27:57.771Z,99619.97
2023-04-12T22:30:01.074Z,99626.91
2023-04-12T22:32:04.472Z,99632.09
2023-04-12T22:34:07.744Z,99638.13
2023-04-12T22:36:11.488Z,99632.00
2023-04-12T22:38:15.784Z,99637.28
2023-04-12T22:40:19.473Z,99641.66
2023-04-12T22:42:26.493Z,99636.56
2023-04-12T22:44:38.077Z,99639.06
2023-04-12T22:46:43.885Z,99633.88
2023-04-12T22:48:47.759Z,99638.88
2023-04-12T22:50:51.119Z,99631.81
2023-04-12T22:52:54.623Z,99636.84
2023-04-12T22:54:58.037Z,99636.75
2023-04-12T22:57:02.428Z,99632.25
2023-04-12T22:59:05.745Z,99620.09
2023-04-12T23:01:11.387Z,99622.72
2023-04-12T23:03:14.730Z,99626.22
2023-04-12T23:05:19.857Z,99628.00
2023-04-12T23:07:23.338Z,99625.41
2023-04-12T23:09:27.318Z,99616.06
2023-04-12T23:11:30.620Z,99613.56
2023-04-12T23:13:34.979Z,99609.38
2023-04-12T23:15:40.477Z,99606.03
2023-04-12T23:17:45.296Z,99601.03
2023-04-12T23:19:50.418Z,99607.25
2023-04-12T23:21:54.522Z,99606.59
2023-04-12T23:23:58.125Z,99604.28
2023-04-12T23:26:01.656Z,99595.84
2023-04-12T23:28:05.359Z,99605.53
2023-04-12T23:30:11.618Z,99613.47
2023-04-12T23:32:14.911Z,99623.13
2023-04-12T23:34:21.947Z,99628.50
2023-04-12T23:36:26.253Z,99621.63
2023-04-12T23:38:33.863Z,99620.88
2023-04-12T23:40:37.379Z,99626.25
2023-04-12T23:42:40.758Z,99622.91
2023-04-12T23:44:44.083Z,99626.44
2023-04-12T23:46:47.777Z,99632.56
2023-04-12T23:48:51.251Z,99635.16
2023-04-12T23:50:55.962Z,99627.38
2023-04-12T23:52:59.323Z,99627.38
2023-04-12T23:55:03.290Z,99620.50
2023-04-12T23:57:06.594Z,99620.50
2023-04-12T23:59:09.925Z,99618.84
